createdAt,value
2023-03-05T00:00:29.272Z,2.55
2023-03-05T00:02:56.428Z,2.00
2023-03-05T00:05:23.612Z,2.83
2023-03-05T00:07:50.735Z,3.33
2023-03-05T00:10:17.934Z,2.35
2023-03-05T00:12:45.069Z,1.75
2023-03-05T00:15:12.362Z,2.58
2023-03-05T00:17:39.728Z,1.92
2023-03-05T00:20:07.202Z,2.15
2023-03-05T00:22:35.149Z,2.20
2023-03-05T00:25:02.334Z,1.80
2023-03-05T00:27:29.501Z,2.58
2023-03-05T00:29:56.725Z,2.55
2023-03-05T00:32:24.049Z,2.58
2023-03-05T00:34:51.254Z,2.13
2023-03-05T00:37:18.395Z,2.17
2023-03-05T00:39:45.482Z,1.73
2023-03-05T00:42:12.588Z,2.75
2023-03-05T00:44:40.770Z,2.58
2023-03-05T00:47:08.092Z,2.13
2023-03-05T00:49:35.295Z,2.50
2023-03-05T00:52:02.440Z,2.42
2023-03-05T00:54:29.568Z,2.03
2023-03-05T00:56:56.657Z,2.38
2023-03-05T00:59:24.006Z,2.00
2023-03-05T01:01:51.171Z,2.25
2023-03-05T01:04:18.551Z,2.60
2023-03-05T01:06:46.704Z,2.08
2023-03-05T01:09:14.388Z,1.92
2023-03-05T01:11:41.630Z,2.30
2023-03-05T01:14:08.928Z,2.60
2023-03-05T01:16:36.301Z,1.83
2023-03-05T01:19:03.657Z,1.90
2023-03-05T01:21:30.770Z,2.25
2023-03-05T01:23:58.902Z,3.65
2023-03-05T01:26:26.265Z,2.70
2023-03-05T01:28:53.557Z,1.70
2023-03-05T01:31:20.999Z,1.58
2023-03-05T01:33:48.539Z,1.85
2023-03-05T01:36:16.930Z,1.45
2023-03-05T01:38:48.136Z,1.80
2023-03-05T01:41:20.353Z,1.70
2023-03-05T01:43:48.116Z,1.30
2023-03-05T01:46:24.729Z,1.75
2023-03-05T01:48:55.113Z,1.92
2023-03-05T01:51:25.170Z,1.75
2023-03-05T01:53:52.942Z,1.52
2023-03-05T01:56:20.745Z,2.35
2023-03-05T01:58:49.215Z,1.98
2023-03-05T02:01:17.259Z,1.75
2023-03-05T02:03:45.645Z,2.40
2023-03-05T02:06:14.929Z,1.90
2023-03-05T02:08:45.417Z,1.85
2023-03-05T02:11:14.312Z,2.08
2023-03-05T02:13:42.012Z,2.03
2023-03-05T02:16:09.580Z,1.90
2023-03-05T02:18:36.921Z,2.35
2023-03-05T02:21:06.794Z,2.38
2023-03-05T02:23:38.601Z,1.73
2023-03-05T02:26:07.991Z,2.23
2023-03-05T02:28:41.160Z,2.30
2023-03-05T02:31:09.963Z,1.85
2023-03-05T02:33:37.120Z,2.38
2023-03-05T02:36:04.686Z,1.60
2023-03-05T02:38:31.856Z,1.92
2023-03-05T02:40:58.956Z,1.50
2023-03-05T02:43:26.140Z,2.05
2023-03-05T02:45:54.126Z,2.20
2023-03-05T02:48:21.630Z,2.58
2023-03-05T02:50:49.434Z,2.00
2023-03-05T02:53:17.525Z,1.70
2023-03-05T02:55:47.148Z,2.90
2023-03-05T02:58:14.668Z,2.38
2023-03-05T03:00:41.808Z,2.22
2023-03-05T03:03:09.055Z,2.28
2023-03-05T03:05:37.364Z,2.10
2023-03-05T03:08:04.792Z,1.77
2023-03-05T03:10:31.924Z,2.13
2023-03-05T03:12:59.088Z,1.92
2023-03-05T03:15:26.220Z,2.17
2023-03-05T03:17:53.447Z,2.38
2023-03-05T03:20:20.777Z,1.80
2023-03-05T03:22:48.314Z,1.85
2023-03-05T03:25:16.625Z,2.42
2023-03-05T03:27:43.820Z,2.28
2023-03-05T03:30:11.737Z,1.98
2023-03-05T03:32:38.896Z,2.30
2023-03-05T03:35:06.283Z,1.80
2023-03-05T03:37:33.789Z,2.50
2023-03-05T03:40:00.907Z,2.42
2023-03-05T03:42:28.087Z,2.42
2023-03-05T03:44:55.421Z,2.47
2023-03-05T03:47:22.600Z,2.67
2023-03-05T03:49:49.792Z,2.67
2023-03-05T03:52:17.314Z,1.92
2023-03-05T03:54:44.461Z,1.92
2023-03-05T03:57:11.654Z,2.55
2023-03-05T03:59:38.812Z,2.50
2023-03-05T04:02:05.952Z,2.17
2023-03-05T04:04:33.144Z,1.88
2023-03-05T04:07:00.235Z,1.88
2023-03-05T04:09:28.493Z,2.08
2023-03-05T04:11:55.623Z,2.60
2023-03-05T04:14:22.964Z,2.65
2023-03-05T04:16:50.113Z,1.75
2023-03-05T04:19:17.422Z,2.13
2023-03-05T04:21:44.568Z,1.92
2023-03-05T04:24:11.738Z,1.88
2023-03-05T04:26:39.901Z,1.90
2023-03-05T04:29:07.103Z,1.90
2023-03-05T04:31:34.262Z,2.10
2023-03-05T04:34:01.506Z,2.25
2023-03-05T04:36:28.697Z,1.50
2023-03-05T04:38:55.872Z,1.80
2023-03-05T04:41:23.251Z,1.70
2023-03-05T04:43:50.529Z,1.70
2023-03-05T04:46:17.615Z,1.63
2023-03-05T04:48:44.925Z,1.58
2023-03-05T04:51:12.112Z,0.95
2023-03-05T04:53:39.353Z,1.60
2023-03-05T04:56:06.801Z,1.65
2023-03-05T04:58:33.926Z,1.88
2023-03-05T05:01:02.399Z,1.30
2023-03-05T05:03:29.655Z,1.70
2023-03-05T05:05:57.668Z,1.17
2023-03-05T05:08:25.336Z,1.40
2023-03-05T05:11:06.077Z,1.10
2023-03-05T05:13:33.807Z,1.30
2023-03-05T05:16:01.169Z,1.55
2023-03-05T05:18:28.475Z,1.20
2023-03-05T05:20:55.657Z,1.35
2023-03-05T05:23:22.872Z,1.23
2023-03-05T05:26:00.182Z,1.40
2023-03-05T05:28:27.807Z,1.33
2023-03-05T05:30:55.275Z,1.20
2023-03-05T05:33:23.325Z,1.50
2023-03-05T05:35:50.935Z,1.40
2023-03-05T05:38:18.128Z,1.80
2023-03-05T05:40:45.731Z,1.08
2023-03-05T05:43:13.095Z,1.30
2023-03-05T05:45:40.340Z,1.50
2023-03-05T05:48:07.611Z,1.55
2023-03-05T05:50:34.843Z,1.67
2023-03-05T05:53:01.979Z,1.55
2023-03-05T05:55:29.386Z,1.38
2023-03-05T05:57:56.589Z,1.20
2023-03-05T06:00:23.951Z,1.63
2023-03-05T06:02:51.287Z,1.60
2023-03-05T06:05:18.423Z,1.98
2023-03-05T06:07:48.304Z,1.40
2023-03-05T06:10:15.534Z,1.42
2023-03-05T06:12:42.696Z,1.40
2023-03-05T06:15:10.349Z,1.52
2023-03-05T06:17:37.636Z,1.40
2023-03-05T06:20:05.432Z,1.48
2023-03-05T06:22:32.550Z,1.30
2023-03-05T06:24:59.709Z,1.30
2023-03-05T06:27:26.854Z,1.40
2023-03-05T06:29:59.395Z,1.60
2023-03-05T06:32:30.665Z,1.40
2023-03-05T06:34:57.997Z,1.80
2023-03-05T06:37:25.216Z,1.75
2023-03-05T06:39:52.575Z,1.65
2023-03-05T06:42:21.161Z,1.40
2023-03-05T06:44:48.538Z,1.90
2023-03-05T06:47:21.660Z,1.70
2023-03-05T06:49:49.910Z,2.55
2023-03-05T06:52:18.417Z,2.35
2023-03-05T06:54:47.367Z,1.77
2023-03-05T06:57:14.744Z,2.08
2023-03-05T06:59:41.821Z,2.00
2023-03-05T07:02:10.614Z,1.60
2023-03-05T07:04:37.907Z,1.40
2023-03-05T07:07:14.980Z,2.15
2023-03-05T07:10:00.650Z,2.30
2023-03-05T07:12:38.364Z,1.55
2023-03-05T07:15:08.925Z,1.80
2023-03-05T07:17:37.597Z,1.80
2023-03-05T07:20:10.410Z,1.90
2023-03-05T07:22:38.197Z,1.77
2023-03-05T07:25:05.704Z,1.90
2023-03-05T07:27:35.646Z,1.60
2023-03-05T07:30:03.221Z,2.15
2023-03-05T07:32:30.629Z,1.92
2023-03-05T07:34:57.847Z,1.90
2023-03-05T07:37:26.058Z,1.80
2023-03-05T07:39:53.166Z,1.50
2023-03-05T07:42:20.342Z,1.58
2023-03-05T07:44:56.922Z,1.77
2023-03-05T07:47:24.197Z,1.80
2023-03-05T07:49:54.706Z,1.85
2023-03-05T07:52:23.654Z,1.70
2023-03-05T07:54:50.855Z,1.80
2023-03-05T07:57:18.070Z,1.92
2023-03-05T07:59:45.489Z,1.80
2023-03-05T08:02:13.794Z,1.77
2023-03-05T08:04:42.258Z,2.17
2023-03-05T08:07:09.696Z,1.95
2023-03-05T08:09:37.025Z,1.75
2023-03-05T08:12:04.384Z,2.13
2023-03-05T08:14:31.691Z,2.22
2023-03-05T08:16:58.911Z,1.60
2023-03-05T08:19:26.060Z,1.55
2023-03-05T08:21:55.022Z,1.67
2023-03-05T08:24:29.586Z,1.60
2023-03-05T08:26:57.672Z,1.63
2023-03-05T08:29:25.464Z,1.48
2023-03-05T08:31:56.458Z,1.33
2023-03-05T08:34:23.732Z,1.30
2023-03-05T08:36:51.028Z,1.58
2023-03-05T08:39:19.544Z,1.00
2023-03-05T08:41:47.164Z,1.45
2023-03-05T08:44:16.807Z,1.50
2023-03-05T08:46:44.291Z,1.23
2023-03-05T08:49:11.766Z,1.63
2023-03-05T08:51:38.895Z,2.03
2023-03-05T08:54:07.460Z,1.20
2023-03-05T08:56:35.331Z,1.13
2023-03-05T08:59:03.110Z,1.63
2023-03-05T09:01:31.781Z,1.45
2023-03-05T09:03:59.962Z,1.85
2023-03-05T09:06:27.472Z,1.73
2023-03-05T09:08:57.376Z,1.63
2023-03-05T09:11:24.543Z,1.60
2023-03-05T09:13:52.087Z,2.70
2023-03-05T09:16:19.764Z,1.85
2023-03-05T09:18:47.032Z,1.42
2023-03-05T09:21:15.756Z,1.52
2023-03-05T09:23:43.000Z,1.35
2023-03-05T09:26:11.948Z,1.33
2023-03-05T09:28:39.388Z,1.77
2023-03-05T09:31:09.924Z,2.10
2023-03-05T09:33:37.592Z,1.60
2023-03-05T09:36:05.113Z,1.50
2023-03-05T09:38:32.385Z,1.10
2023-03-05T09:41:07.908Z,1.13
2023-03-05T09:43:45.214Z,1.30
2023-03-05T09:46:17.332Z,1.23
2023-03-05T09:48:52.027Z,1.58
2023-03-05T09:51:22.834Z,0.98
2023-03-05T09:53:54.473Z,1.05
2023-03-05T09:56:24.260Z,1.52
2023-03-05T09:58:57.172Z,2.38
2023-03-05T10:01:29.174Z,1.10
2023-03-05T10:03:58.834Z,1.38
2023-03-05T10:06:27.948Z,1.40
2023-03-05T10:08:57.627Z,1.80
2023-03-05T10:11:38.878Z,1.48
2023-03-05T10:14:06.458Z,1.77
2023-03-05T10:16:48.680Z,1.33
2023-03-05T10:19:19.086Z,1.60
2023-03-05T10:22:08.627Z,1.88
2023-03-05T10:24:38.527Z,1.08
2023-03-05T10:27:19.375Z,1.48
2023-03-05T10:29:58.813Z,0.90
2023-03-05T10:32:26.059Z,1.75
2023-03-05T10:35:04.141Z,1.70
2023-03-05T10:37:31.343Z,1.48
2023-03-05T10:40:01.719Z,1.13
2023-03-05T10:42:38.214Z,1.73
2023-03-05T10:45:24.049Z,1.63
2023-03-05T10:47:54.035Z,1.10
2023-03-05T10:50:25.637Z,1.20
2023-03-05T10:53:04.663Z,1.20
2023-03-05T10:55:31.813Z,1.00
2023-03-05T10:57:58.924Z,1.33
2023-03-05T11:00:27.978Z,0.98
2023-03-05T11:02:57.142Z,1.10
2023-03-05T11:05:35.849Z,1.42
2023-03-05T11:08:18.473Z,1.10
2023-03-05T11:10:45.874Z,1.10
2023-03-05T11:13:25.566Z,1.08
2023-03-05T11:16:02.514Z,1.10
2023-03-05T11:18:34.321Z,1.40
2023-03-05T11:21:12.538Z,1.40
2023-03-05T11:23:39.848Z,2.03
2023-03-05T11:26:13.064Z,1.10
2023-03-05T11:28:42.195Z,1.20
2023-03-05T11:31:18.629Z,1.00
2023-03-05T11:33:56.862Z,1.13
2023-03-05T11:36:26.126Z,1.10
2023-03-05T11:38:54.925Z,1.52
2023-03-05T11:41:25.459Z,1.48
2023-03-05T11:43:53.907Z,1.00
2023-03-05T11:46:22.013Z,1.20
2023-03-05T11:48:50.722Z,1.58
2023-03-05T11:51:23.918Z,1.17
2023-03-05T11:53:53.060Z,1.23
2023-03-05T11:56:28.344Z,1.42
2023-03-05T11:58:59.625Z,1.38
2023-03-05T12:01:29.767Z,1.05
2023-03-05T12:03:57.358Z,1.48
2023-03-05T12:06:37.589Z,1.05
2023-03-05T12:09:09.864Z,2.58
2023-03-05T12:11:39.704Z,1.20
2023-03-05T12:14:23.989Z,1.60
2023-03-05T12:16:54.147Z,1.48
2023-03-05T12:19:21.406Z,1.52
2023-03-05T12:21:50.195Z,1.20
2023-03-05T12:24:28.306Z,1.30
2023-03-05T12:27:02.006Z,1.20
2023-03-05T12:29:47.807Z,0.80
2023-03-05T12:32:31.422Z,1.67
2023-03-05T12:35:05.773Z,1.08
2023-03-05T12:37:32.898Z,1.20
2023-03-05T12:40:01.597Z,1.25
2023-03-05T12:42:28.929Z,1.30
2023-03-05T12:45:16.920Z,0.90
2023-03-05T12:47:44.796Z,1.23
2023-03-05T12:50:30.092Z,0.95
2023-03-05T12:52:57.203Z,1.10
2023-03-05T12:55:27.316Z,1.40
2023-03-05T12:58:05.158Z,1.30
2023-03-05T13:00:41.072Z,1.73
2023-03-05T13:03:27.177Z,1.23
2023-03-05T13:05:55.514Z,1.08
2023-03-05T13:08:26.626Z,1.80
2023-03-05T13:10:56.260Z,1.30
2023-03-05T13:13:25.475Z,1.38
2023-03-05T13:15:55.015Z,1.27
2023-03-05T13:18:24.135Z,0.85
2023-03-05T13:21:05.260Z,1.15
2023-03-05T13:23:33.005Z,0.95
2023-03-05T13:26:19.412Z,1.00
2023-03-05T13:29:04.701Z,1.20
2023-03-05T13:31:32.081Z,1.10
2023-03-05T13:34:07.165Z,1.10
2023-03-05T13:36:34.327Z,1.33
2023-03-05T13:39:03.833Z,1.08
2023-03-05T13:41:30.993Z,1.30
2023-03-05T13:43:59.655Z,1.05
2023-03-05T13:46:59.749Z,1.45
2023-03-05T13:49:32.623Z,0.90
2023-03-05T13:52:02.875Z,1.30
2023-03-05T13:54:30.359Z,0.80
2023-03-05T13:57:02.094Z,1.45
2023-03-05T13:59:31.079Z,1.23
2023-03-05T14:01:59.177Z,1.08
2023-03-05T14:04:26.339Z,1.00
2023-03-05T14:06:59.040Z,1.00
2023-03-05T14:12:00.460Z,1.67
2023-03-05T14:14:28.674Z,1.65
2023-03-05T14:16:55.952Z,1.40
2023-03-05T14:19:34.660Z,1.10
2023-03-05T14:22:02.412Z,0.80
2023-03-05T14:24:31.269Z,0.73
2023-03-05T14:27:13.291Z,0.95
2023-03-05T14:29:45.148Z,1.35
2023-03-05T14:32:28.651Z,0.68
2023-03-05T14:34:57.671Z,0.68
2023-03-05T14:37:27.239Z,1.15
2023-03-05T14:39:59.344Z,0.80
2023-03-05T14:42:26.765Z,1.00
2023-03-05T14:44:55.688Z,0.90
2023-03-05T14:47:26.481Z,0.80
2023-03-05T14:49:58.954Z,1.15
2023-03-05T14:52:35.713Z,1.30
2023-03-05T14:55:03.024Z,1.20
2023-03-05T14:57:32.329Z,1.20
2023-03-05T15:00:07.129Z,1.45
2023-03-05T15:02:34.247Z,1.30
2023-03-05T15:05:01.446Z,1.73
2023-03-05T15:07:32.477Z,1.50
2023-03-05T15:10:00.079Z,1.42
2023-03-05T15:12:32.002Z,1.48
2023-03-05T15:14:59.589Z,1.58
2023-03-05T15:17:29.812Z,1.13
2023-03-05T15:19:56.925Z,1.40
2023-03-05T15:22:24.050Z,1.40
2023-03-05T15:24:51.159Z,1.20
2023-03-05T15:27:18.420Z,1.00
2023-03-05T15:29:45.620Z,2.13
2023-03-05T15:32:15.593Z,2.08
2023-03-05T15:34:42.801Z,2.10
2023-03-05T15:37:09.890Z,1.42
2023-03-05T15:39:39.944Z,1.75
2023-03-05T15:42:07.154Z,1.38
2023-03-05T15:44:34.221Z,1.65
2023-03-05T15:47:16.967Z,1.60
2023-03-05T15:49:44.594Z,1.30
2023-03-05T15:52:11.797Z,1.35
2023-03-05T15:54:39.103Z,1.10
2023-03-05T15:57:08.624Z,1.10
2023-03-05T15:59:35.841Z,1.10
2023-03-05T16:02:03.149Z,1.23
2023-03-05T16:04:30.467Z,1.30
2023-03-05T16:06:59.062Z,1.30
2023-03-05T16:09:27.338Z,1.33
2023-03-05T16:11:54.463Z,1.63
2023-03-05T16:14:23.708Z,1.40
2023-03-05T16:16:51.561Z,1.85
2023-03-05T16:19:19.406Z,1.50
2023-03-05T16:21:47.083Z,1.50
2023-03-05T16:24:14.508Z,1.50
2023-03-05T16:26:41.876Z,1.48
2023-03-05T16:29:18.595Z,1.20
2023-03-05T16:31:46.759Z,1.38
2023-03-05T16:34:16.080Z,1.40
2023-03-05T16:36:47.462Z,1.80
2023-03-05T16:39:14.718Z,1.90
2023-03-05T16:41:41.838Z,2.05
2023-03-05T16:44:09.374Z,1.60
2023-03-05T16:46:36.762Z,1.50
2023-03-05T16:49:04.436Z,1.90
2023-03-05T16:51:47.728Z,1.55
2023-03-05T16:54:14.928Z,1.88
2023-03-05T16:56:47.777Z,1.92
2023-03-05T16:59:25.053Z,1.63
2023-03-05T17:01:52.454Z,2.33
2023-03-05T17:04:19.873Z,2.00
2023-03-05T17:06:49.131Z,1.63
2023-03-05T17:12:00.410Z,1.25
2023-03-05T17:14:27.599Z,1.60
2023-03-05T17:17:04.472Z,2.88
2023-03-05T17:19:32.048Z,2.03
2023-03-05T17:22:02.082Z,1.48
2023-03-05T17:24:30.068Z,1.70
2023-03-05T17:26:57.126Z,1.50
2023-03-05T17:29:24.824Z,2.03
2023-03-05T17:31:55.124Z,2.20
2023-03-05T17:34:33.184Z,2.55
2023-03-05T17:37:03.046Z,2.38
2023-03-05T17:39:30.467Z,2.20
2023-03-05T17:41:57.646Z,1.88
2023-03-05T17:44:24.811Z,2.65
2023-03-05T17:46:51.940Z,2.10
2023-03-05T17:49:19.100Z,2.05
2023-03-05T17:51:49.097Z,1.92
2023-03-05T17:54:16.237Z,2.60
2023-03-05T17:56:43.483Z,2.20
2023-03-05T17:59:10.769Z,2.10
2023-03-05T18:01:37.954Z,1.33
2023-03-05T18:04:05.187Z,1.52
2023-03-05T18:06:32.434Z,1.65
2023-03-05T18:08:59.590Z,1.98
2023-03-05T18:11:27.452Z,1.98
2023-03-05T18:13:54.976Z,2.00
2023-03-05T18:16:23.334Z,1.92
2023-03-05T18:18:54.842Z,1.55
2023-03-05T18:21:22.781Z,1.77
2023-03-05T18:23:51.012Z,1.35
2023-03-05T18:26:18.512Z,1.63
2023-03-05T18:28:45.602Z,2.78
2023-03-05T18:31:12.841Z,1.98
2023-03-05T18:33:40.655Z,2.38
2023-03-05T18:36:09.694Z,2.15
2023-03-05T18:38:38.403Z,2.88
2023-03-05T18:41:06.569Z,3.78
2023-03-05T18:43:33.779Z,2.45
2023-03-05T18:46:04.757Z,2.85
2023-03-05T18:48:31.967Z,2.50
2023-03-05T18:51:01.241Z,2.53
2023-03-05T18:53:30.230Z,3.30
2023-03-05T18:55:57.343Z,5.38
2023-03-05T18:58:26.005Z,5.88
2023-03-05T19:00:53.368Z,4.20
2023-03-05T19:03:22.578Z,3.33
2023-03-05T19:05:53.240Z,4.10
2023-03-05T19:08:20.887Z,4.60
2023-03-05T19:10:48.200Z,2.70
2023-03-05T19:13:39.818Z,2.63
2023-03-05T19:16:10.445Z,2.70
2023-03-05T19:18:43.865Z,2.20
2023-03-05T19:21:13.341Z,1.98
2023-03-05T19:23:40.487Z,2.28
2023-03-05T19:26:08.176Z,3.40
2023-03-05T19:28:35.340Z,3.60
2023-03-05T19:31:08.348Z,3.72
2023-03-05T19:33:42.927Z,3.97
2023-03-05T19:36:13.881Z,2.58
2023-03-05T19:38:41.089Z,2.42
2023-03-05T19:41:09.428Z,2.22
2023-03-05T19:43:39.365Z,2.17
2023-03-05T19:46:07.731Z,2.17
2023-03-05T19:48:35.430Z,2.08
2023-03-05T19:51:03.832Z,2.30
2023-03-05T19:53:31.038Z,2.42
2023-03-05T19:55:58.219Z,2.10
2023-03-05T19:58:25.334Z,2.15
2023-03-05T20:00:52.466Z,2.30
2023-03-05T20:03:19.569Z,2.08
2023-03-05T20:05:46.756Z,2.30
2023-03-05T20:08:13.931Z,2.47
2023-03-05T20:10:41.219Z,1.98
2023-03-05T20:13:08.350Z,2.17
2023-03-05T20:15:35.562Z,1.75
2023-03-05T20:18:02.680Z,1.70
2023-03-05T20:20:31.039Z,1.95
2023-03-05T20:22:58.121Z,1.83
2023-03-05T20:25:26.833Z,1.90
2023-03-05T20:27:56.418Z,1.75
2023-03-05T20:30:23.660Z,1.70
2023-03-05T20:32:58.072Z,1.90
2023-03-05T20:35:25.359Z,1.98
2023-03-05T20:38:24.887Z,2.05
2023-03-05T20:41:03.031Z,1.33
2023-03-05T20:43:35.980Z,2.40
2023-03-05T20:46:03.721Z,2.03
2023-03-05T20:48:38.016Z,1.70
2023-03-05T20:51:12.049Z,1.73
2023-03-05T20:53:39.194Z,1.92
2023-03-05T20:56:10.330Z,1.83
2023-03-05T20:58:37.986Z,1.65
2023-03-05T21:01:05.449Z,2.08
2023-03-05T21:03:32.693Z,1.63
2023-03-05T21:06:02.031Z,1.60
2023-03-05T21:08:29.325Z,2.13
2023-03-05T21:10:56.385Z,2.08
2023-03-05T21:13:25.042Z,1.80
2023-03-05T21:15:52.539Z,2.33
2023-03-05T21:18:19.745Z,1.70
2023-03-05T21:20:46.882Z,1.88
2023-03-05T21:23:14.155Z,1.50
2023-03-05T21:25:41.375Z,1.63
2023-03-05T21:28:17.317Z,1.58
2023-03-05T21:30:48.531Z,1.98
2023-03-05T21:33:18.114Z,1.65
2023-03-05T21:35:45.531Z,2.08
2023-03-05T21:38:14.044Z,2.55
2023-03-05T21:40:45.245Z,2.38
2023-03-05T21:43:12.882Z,2.25
2023-03-05T21:45:40.646Z,2.08
2023-03-05T21:48:08.233Z,2.10
2023-03-05T21:50:35.967Z,2.33
2023-03-05T21:53:03.964Z,1.85
2023-03-05T21:55:57.332Z,1.85
2023-03-05T21:58:35.250Z,1.80
2023-03-05T22:01:03.002Z,1.95
2023-03-05T22:03:30.594Z,2.08
2023-03-05T22:05:58.191Z,1.95
2023-03-05T22:08:25.803Z,2.40
2023-03-05T22:10:54.301Z,1.92
2023-03-05T22:13:21.510Z,2.20
2023-03-05T22:15:49.748Z,2.17
2023-03-05T22:18:18.247Z,2.60
2023-03-05T22:20:45.488Z,2.40
2023-03-05T22:23:12.951Z,2.22
2023-03-05T22:25:40.482Z,2.53
2023-03-05T22:28:09.123Z,1.90
2023-03-05T22:30:36.232Z,2.25
2023-03-05T22:33:03.560Z,2.00
2023-03-05T22:35:30.744Z,2.00
2023-03-05T22:37:58.693Z,1.88
2023-03-05T22:40:26.120Z,2.10
2023-03-05T22:42:53.207Z,1.85
2023-03-05T22:45:20.396Z,2.22
2023-03-05T22:47:48.605Z,1.90
2023-03-05T22:50:16.133Z,2.17
2023-03-05T22:52:43.331Z,2.08
2023-03-05T22:55:14.161Z,2.15
2023-03-05T22:57:41.642Z,1.83
2023-03-05T23:00:13.359Z,2.10
2023-03-05T23:02:41.923Z,2.67
2023-03-05T23:05:09.817Z,2.22
2023-03-05T23:07:38.148Z,2.58
2023-03-05T23:10:07.357Z,2.60
2023-03-05T23:12:35.609Z,2.47
2023-03-05T23:15:03.765Z,2.38
2023-03-05T23:17:30.837Z,2.45
2023-03-05T23:19:57.938Z,2.40
2023-03-05T23:22:25.205Z,2.25
2023-03-05T23:24:52.459Z,2.10
2023-03-05T23:27:19.963Z,2.25
2023-03-05T23:30:13.832Z,2.72
2023-03-05T23:32:41.098Z,2.45
2023-03-05T23:35:10.294Z,2.72
2023-03-05T23:37:37.412Z,2.50
2023-03-05T23:40:06.651Z,2.65
2023-03-05T23:42:33.813Z,2.90
2023-03-05T23:45:01.157Z,2.97
2023-03-05T23:47:28.357Z,2.40
2023-03-05T23:49:55.488Z,3.22
2023-03-05T23:52:22.711Z,2.30
2023-03-05T23:54:49.842Z,2.42
2023-03-05T23:57:17.071Z,2.88
2023-03-05T23:59:44.224Z,2.53
